createdAt,value
2018-04-04T00:00:04.134Z,922.88
2018-04-04T00:01:15.510Z,922.87
2018-04-04T00:01:43.657Z,922.86
2018-04-04T00:02:11.751Z,922.87
2018-04-04T00:02:39.923Z,922.86
2018-04-04T00:03:08.003Z,922.92
2018-04-04T00:03:35.994Z,922.91
2018-04-04T00:04:04.270Z,922.91
2018-04-04T00:04:32.569Z,922.93
2018-04-04T00:05:00.889Z,922.95
2018-04-04T00:05:29.113Z,922.92
2018-04-04T00:05:57.362Z,922.92
2018-04-04T00:07:08.725Z,922.92
2018-04-04T00:07:36.915Z,922.93
2018-04-04T00:08:05.192Z,922.95
2018-04-04T00:08:33.461Z,922.95
2018-04-04T00:09:01.618Z,922.95
2018-04-04T00:09:29.795Z,922.97
2018-04-04T00:09:57.973Z,923.01
2018-04-04T00:10:26.177Z,922.97
2018-04-04T00:10:54.297Z,922.95
2018-04-04T00:11:22.625Z,922.96
2018-04-04T00:11:50.855Z,922.99
2018-04-04T00:13:02.140Z,923
2018-04-04T00:13:30.433Z,923.01
2018-04-04T00:13:58.705Z,922.99
2018-04-04T00:14:26.968Z,923.01
2018-04-04T00:14:55.149Z,922.97
2018-04-04T00:15:23.341Z,922.99
2018-04-04T00:15:51.510Z,922.98
2018-04-04T00:16:19.804Z,923.06
2018-04-04T00:16:48.174Z,922.99
2018-04-04T00:17:16.450Z,922.96
2018-04-04T00:17:44.670Z,922.98
2018-04-04T00:18:55.949Z,922.98
2018-04-04T00:19:24.202Z,922.96
2018-04-04T00:19:52.325Z,922.96
2018-04-04T00:20:20.551Z,923
2018-04-04T00:20:48.801Z,922.99
2018-04-04T00:21:17.037Z,922.98
2018-04-04T00:21:45.271Z,922.99
2018-04-04T00:22:13.518Z,923.04
2018-04-04T00:22:41.590Z,923
2018-04-04T00:23:09.877Z,923.02
2018-04-04T00:23:38.181Z,923.01
2018-04-04T00:24:49.406Z,923.02
2018-04-04T00:25:17.642Z,922.99
2018-04-04T00:25:45.780Z,923.01
2018-04-04T00:26:13.995Z,923.01
2018-04-04T00:26:42.022Z,922.95
2018-04-04T00:27:10.060Z,922.97
2018-04-04T00:27:38.196Z,922.93
2018-04-04T00:28:06.384Z,922.91
2018-04-04T00:28:34.567Z,922.91
2018-04-04T00:29:02.744Z,922.91
2018-04-04T00:29:31.023Z,922.91
2018-04-04T00:30:42.066Z,922.9
2018-04-04T00:31:10.246Z,922.9
2018-04-04T00:31:38.517Z,922.9
2018-04-04T00:32:06.591Z,922.91
2018-04-04T00:32:34.663Z,922.92
2018-04-04T00:33:02.836Z,922.88
2018-04-04T00:33:31.090Z,922.87
2018-04-04T00:33:59.140Z,922.89
2018-04-04T00:34:27.256Z,922.9
2018-04-04T00:34:55.386Z,922.92
2018-04-04T00:35:23.607Z,922.94
2018-04-04T00:36:34.788Z,922.92
2018-04-04T00:37:02.967Z,922.98
2018-04-04T00:37:31.171Z,922.92
2018-04-04T00:37:59.406Z,922.9
2018-04-04T00:38:27.687Z,922.99
2018-04-04T00:38:55.785Z,922.99
2018-04-04T00:39:23.961Z,923
2018-04-04T00:39:52.008Z,922.98
2018-04-04T00:40:20.171Z,922.98
2018-04-04T00:40:48.344Z,922.98
2018-04-04T00:41:16.636Z,922.96
2018-04-04T00:42:27.761Z,922.96
2018-04-04T00:42:55.809Z,923
2018-04-04T00:43:23.933Z,922.98
2018-04-04T00:43:52.058Z,922.97
2018-04-04T00:44:20.107Z,922.94
2018-04-04T00:44:48.348Z,922.94
2018-04-04T00:45:16.497Z,922.93
2018-04-04T00:45:44.800Z,922.93
2018-04-04T00:46:12.896Z,922.9
2018-04-04T00:46:41.116Z,922.95
2018-04-04T00:47:09.545Z,922.9
2018-04-04T00:48:21.141Z,922.87
2018-04-04T00:48:49.488Z,922.91
2018-04-04T00:49:17.882Z,922.88
2018-04-04T00:49:46.290Z,922.89
2018-04-04T00:50:14.589Z,922.84
2018-04-04T00:50:42.871Z,922.91
2018-04-04T00:51:11.221Z,922.84
2018-04-04T00:51:39.555Z,922.84
2018-04-04T00:52:07.833Z,922.84
2018-04-04T00:52:35.960Z,922.84
2018-04-04T00:53:04.110Z,922.83
2018-04-04T00:54:15.316Z,922.83
2018-04-04T00:54:43.609Z,922.82
2018-04-04T00:55:11.904Z,922.83
2018-04-04T00:55:40.134Z,922.83
2018-04-04T00:56:08.226Z,922.78
2018-04-04T00:56:36.516Z,922.81
2018-04-04T00:57:04.602Z,922.78
2018-04-04T00:57:32.718Z,922.78
2018-04-04T00:58:00.737Z,922.75
2018-04-04T00:58:28.968Z,922.78
2018-04-04T00:58:57.294Z,922.79
2018-04-04T01:00:08.659Z,922.81
2018-04-04T01:00:36.743Z,922.83
2018-04-04T01:01:04.918Z,922.84
2018-04-04T01:01:33.095Z,922.84
2018-04-04T01:02:01.297Z,922.85
2018-04-04T01:02:29.614Z,922.89
2018-04-04T01:02:57.901Z,922.88
2018-04-04T01:03:26.096Z,922.9
2018-04-04T01:03:54.328Z,922.93
2018-04-04T01:04:22.579Z,922.92
2018-04-04T01:04:50.931Z,922.91
2018-04-04T01:06:02.232Z,922.9
2018-04-04T01:06:30.378Z,922.93
2018-04-04T01:06:58.607Z,922.92
2018-04-04T01:07:26.832Z,922.95
2018-04-04T01:07:54.964Z,922.91
2018-04-04T01:08:22.970Z,922.95
2018-04-04T01:08:51.092Z,922.98
2018-04-04T01:09:19.301Z,923
2018-04-04T01:09:47.518Z,923.01
2018-04-04T01:10:15.837Z,922.98
2018-04-04T01:10:44.181Z,922.97
2018-04-04T01:11:55.266Z,922.99
2018-04-04T01:12:23.553Z,922.99
2018-04-04T01:12:51.521Z,922.99
2018-04-04T01:13:19.510Z,922.97
2018-04-04T01:13:47.688Z,922.99
2018-04-04T01:14:15.970Z,923.03
2018-04-04T01:14:44.056Z,923.07
2018-04-04T01:15:12.012Z,923.05
2018-04-04T01:15:40.209Z,923.05
2018-04-04T01:16:08.390Z,923.03
2018-04-04T01:16:36.474Z,923.06
2018-04-04T01:17:47.821Z,923.04
2018-04-04T01:18:15.972Z,923.02
2018-04-04T01:18:44.192Z,923.04
2018-04-04T01:19:12.404Z,923.02
2018-04-04T01:19:40.666Z,923.02
2018-04-04T01:20:08.845Z,923.02
2018-04-04T01:20:37.033Z,923
2018-04-04T01:21:05.234Z,923.02
2018-04-04T01:21:33.251Z,922.97
2018-04-04T01:22:01.378Z,923.03
2018-04-04T01:22:29.595Z,923
2018-04-04T01:23:40.918Z,923.04
2018-04-04T01:24:09.051Z,922.97
2018-04-04T01:24:37.165Z,922.97
2018-04-04T01:25:05.383Z,922.95
2018-04-04T01:25:33.504Z,922.93
2018-04-04T01:26:01.643Z,922.96
2018-04-04T01:26:29.871Z,922.92
2018-04-04T01:26:57.918Z,922.94
2018-04-04T01:27:26.215Z,922.94
2018-04-04T01:27:54.436Z,922.92
2018-04-04T01:28:22.756Z,922.89
2018-04-04T01:29:33.640Z,922.89
2018-04-04T01:30:01.794Z,922.86
2018-04-04T01:30:29.913Z,922.87
2018-04-04T01:30:58.129Z,922.88
2018-04-04T01:31:26.254Z,922.86
2018-04-04T01:31:54.492Z,922.88
2018-04-04T01:32:22.521Z,922.9
2018-04-04T01:32:50.678Z,922.86
2018-04-04T01:33:18.739Z,922.88
2018-04-04T01:33:46.903Z,922.89
2018-04-04T01:34:14.880Z,922.9
2018-04-04T01:35:25.995Z,922.92
2018-04-04T01:35:54.132Z,922.92
2018-04-04T01:36:22.264Z,922.97
2018-04-04T01:36:50.482Z,922.97
2018-04-04T01:37:18.607Z,922.94
2018-04-04T01:37:46.543Z,923
2018-04-04T01:38:14.772Z,922.98
2018-04-04T01:38:42.922Z,922.97
2018-04-04T01:39:10.990Z,922.97
2018-04-04T01:39:39.060Z,922.98
2018-04-04T01:40:07.144Z,922.96
2018-04-04T01:41:18.269Z,923.01
2018-04-04T01:41:46.505Z,923.01
2018-04-04T01:42:14.757Z,922.97
2018-04-04T01:42:42.900Z,922.97
2018-04-04T01:43:11.054Z,922.95
2018-04-04T01:43:39.134Z,922.99
2018-04-04T01:44:07.176Z,922.96
2018-04-04T01:44:35.389Z,922.94
2018-04-04T01:45:03.689Z,922.96
2018-04-04T01:45:31.939Z,922.96
2018-04-04T01:46:00.222Z,922.92
2018-04-04T01:47:11.450Z,922.93
2018-04-04T01:47:39.703Z,922.97
2018-04-04T01:48:07.921Z,922.94
2018-04-04T01:48:36.035Z,922.93
2018-04-04T01:49:04.175Z,922.96
2018-04-04T01:49:32.352Z,922.92
2018-04-04T01:50:00.535Z,922.92
2018-04-04T01:50:28.616Z,922.93
2018-04-04T01:50:56.888Z,922.93
2018-04-04T01:51:24.874Z,922.91
2018-04-04T01:51:53.051Z,922.93
2018-04-04T01:53:04.381Z,922.91
2018-04-04T01:53:32.422Z,922.89
2018-04-04T01:54:00.555Z,922.88
2018-04-04T01:54:28.716Z,922.9
2018-04-04T01:54:56.979Z,922.84
2018-04-04T01:55:25.218Z,922.9
2018-04-04T01:55:53.357Z,922.9
2018-04-04T01:56:21.525Z,922.86
2018-04-04T01:56:49.733Z,922.89
2018-04-04T01:57:17.955Z,922.89
2018-04-04T01:57:46.103Z,922.87
2018-04-04T01:58:57.233Z,922.86
2018-04-04T01:59:25.290Z,922.88
2018-04-04T01:59:53.518Z,922.89
2018-04-04T02:00:21.674Z,922.87
2018-04-04T02:00:49.832Z,922.86
2018-04-04T02:01:17.994Z,922.88
2018-04-04T02:01:46.181Z,922.88
2018-04-04T02:02:14.422Z,922.88
2018-04-04T02:02:42.627Z,922.87
2018-04-04T02:03:10.926Z,922.84
2018-04-04T02:03:39.123Z,922.87
2018-04-04T02:04:50.166Z,922.87
2018-04-04T02:05:18.314Z,922.82
2018-04-04T02:05:46.466Z,922.85
2018-04-04T02:06:14.414Z,922.84
2018-04-04T02:06:42.541Z,922.83
2018-04-04T02:07:10.572Z,922.83
2018-04-04T02:07:38.698Z,922.81
2018-04-04T02:08:06.946Z,922.82
2018-04-04T02:08:35.124Z,922.83
2018-04-04T02:09:03.097Z,922.85
2018-04-04T02:09:31.312Z,922.82
2018-04-04T02:10:42.580Z,922.86
2018-04-04T02:11:10.756Z,922.82
2018-04-04T02:11:38.787Z,922.83
2018-04-04T02:12:06.913Z,922.87
2018-04-04T02:12:35.158Z,922.85
2018-04-04T02:13:03.229Z,922.87
2018-04-04T02:13:31.402Z,922.85
2018-04-04T02:13:59.494Z,922.84
2018-04-04T02:14:27.787Z,922.84
2018-04-04T02:14:56.022Z,922.84
2018-04-04T02:15:24.214Z,922.86
2018-04-04T02:16:35.325Z,922.82
2018-04-04T02:17:03.495Z,922.84
2018-04-04T02:17:31.731Z,922.81
2018-04-04T02:17:59.831Z,922.86
2018-04-04T02:18:27.858Z,922.83
2018-04-04T02:18:56.088Z,922.85
2018-04-04T02:19:24.020Z,922.87
2018-04-04T02:19:52.067Z,922.87
2018-04-04T02:20:20.172Z,922.88
2018-04-04T02:20:48.253Z,922.86
2018-04-04T02:21:16.497Z,922.87
2018-04-04T02:22:27.660Z,922.9
2018-04-04T02:22:55.598Z,922.89
2018-04-04T02:23:23.595Z,922.9
2018-04-04T02:23:51.797Z,922.9
2018-04-04T02:24:20.025Z,922.89
2018-04-04T02:24:48.255Z,922.88
2018-04-04T02:25:16.488Z,922.95
2018-04-04T02:25:44.624Z,922.91
2018-04-04T02:26:12.835Z,922.92
2018-04-04T02:26:41.104Z,922.97
2018-04-04T02:27:09.369Z,922.91
2018-04-04T02:28:20.716Z,922.89
2018-04-04T02:28:48.911Z,922.9
2018-04-04T02:29:17.071Z,922.94
2018-04-04T02:29:45.329Z,922.95
2018-04-04T02:30:13.416Z,922.95
2018-04-04T02:30:41.682Z,922.96
2018-04-04T02:31:09.963Z,922.97
2018-04-04T02:31:38.158Z,922.94
2018-04-04T02:32:06.419Z,922.97
2018-04-04T02:32:34.639Z,922.95
2018-04-04T02:33:02.861Z,922.94
2018-04-04T02:34:14.039Z,922.93
2018-04-04T02:34:42.322Z,922.91
2018-04-04T02:35:10.390Z,922.92
2018-04-04T02:35:38.562Z,922.92
2018-04-04T02:36:06.834Z,922.92
2018-04-04T02:36:35.017Z,922.9
2018-04-04T02:37:03.192Z,922.85
2018-04-04T02:37:31.371Z,922.87
2018-04-04T02:37:59.431Z,922.9
2018-04-04T02:38:27.647Z,922.93
2018-04-04T02:38:55.853Z,922.92
2018-04-04T02:40:07.128Z,922.93
2018-04-04T02:40:35.409Z,922.96
2018-04-04T02:41:03.684Z,922.98
2018-04-04T02:41:31.943Z,922.99
2018-04-04T02:42:00.110Z,922.98
2018-04-04T02:42:28.191Z,922.98
2018-04-04T02:42:56.069Z,923.02
2018-04-04T02:43:24.165Z,923
2018-04-04T02:43:52.184Z,923.02
2018-04-04T02:44:20.509Z,923.02
2018-04-04T02:44:48.829Z,923.04
2018-04-04T02:46:00.206Z,923.05
2018-04-04T02:46:28.384Z,923.02
2018-04-04T02:46:56.659Z,923.07
2018-04-04T02:47:24.828Z,923.06
2018-04-04T02:47:52.998Z,923.01
2018-04-04T02:48:21.280Z,923.04
2018-04-04T02:48:49.556Z,923.06
2018-04-04T02:49:17.859Z,923.04
2018-04-04T02:49:46.168Z,923.06
2018-04-04T02:50:14.493Z,923.03
2018-04-04T02:50:42.612Z,923.05
2018-04-04T02:51:53.888Z,923.07
2018-04-04T02:52:21.974Z,923.04
2018-04-04T02:52:50.143Z,923.01
2018-04-04T02:53:18.218Z,923.04
2018-04-04T02:53:46.394Z,923.03
2018-04-04T02:54:14.679Z,923.03
2018-04-04T02:54:42.946Z,923.02
2018-04-04T02:55:11.583Z,923
2018-04-04T02:55:39.797Z,923.02
2018-04-04T02:56:08.024Z,923.04
2018-04-04T02:56:36.151Z,923.01
2018-04-04T02:57:47.430Z,923.01
2018-04-04T02:58:15.724Z,923.04
2018-04-04T02:58:43.813Z,923
2018-04-04T02:59:12.077Z,923.03
2018-04-04T02:59:40.153Z,923
2018-04-04T03:00:08.443Z,922.96
2018-04-04T03:00:36.623Z,923.01
2018-04-04T03:01:04.826Z,922.95
2018-04-04T03:01:33.055Z,922.97
2018-04-04T03:02:01.272Z,922.96
2018-04-04T03:02:29.495Z,922.99
2018-04-04T03:03:40.774Z,922.96
2018-04-04T03:04:09.024Z,922.95
2018-04-04T03:04:37.035Z,922.97
2018-04-04T03:05:05.202Z,922.96
2018-04-04T03:05:33.280Z,922.98
2018-04-04T03:06:01.370Z,922.98
2018-04-04T03:06:29.545Z,922.97
2018-04-04T03:06:57.649Z,922.98
2018-04-04T03:07:25.965Z,922.98
2018-04-04T03:07:54.088Z,922.99
2018-04-04T03:08:22.311Z,923
2018-04-04T03:09:33.492Z,922.99
2018-04-04T03:10:01.579Z,923
2018-04-04T03:10:29.653Z,923
2018-04-04T03:10:57.724Z,923.02
2018-04-04T03:11:25.803Z,923
2018-04-04T03:11:53.890Z,922.97
2018-04-04T03:12:22.167Z,922.97
2018-04-04T03:12:50.368Z,922.95
2018-04-04T03:13:18.587Z,922.96
2018-04-04T03:13:46.614Z,922.94
2018-04-04T03:14:14.843Z,922.89
2018-04-04T03:15:26.223Z,922.9
2018-04-04T03:15:54.304Z,922.87
2018-04-04T03:16:22.581Z,922.89
2018-04-04T03:16:50.549Z,922.9
2018-04-04T03:17:18.820Z,922.88
2018-04-04T03:17:47.055Z,922.88
2018-04-04T03:18:15.284Z,922.89
2018-04-04T03:18:43.588Z,922.9
2018-04-04T03:19:11.608Z,922.87
2018-04-04T03:19:39.736Z,922.9
2018-04-04T03:20:07.952Z,922.9
2018-04-04T03:21:19.129Z,922.91
2018-04-04T03:21:47.316Z,922.9
2018-04-04T03:22:15.287Z,922.88
2018-04-04T03:22:43.558Z,922.88
2018-04-04T03:23:11.535Z,922.88
2018-04-04T03:23:39.724Z,922.88
2018-04-04T03:24:07.704Z,922.86
2018-04-04T03:24:35.896Z,922.86
2018-04-04T03:25:03.973Z,922.86
2018-04-04T03:25:32.042Z,922.83
2018-04-04T03:26:00.071Z,922.87
2018-04-04T03:27:11.251Z,922.92
2018-04-04T03:27:39.440Z,922.84
2018-04-04T03:28:07.715Z,922.85
2018-04-04T03:28:35.789Z,922.84
2018-04-04T03:29:03.871Z,922.87
2018-04-04T03:29:32.061Z,922.84
2018-04-04T03:30:00.339Z,922.83
2018-04-04T03:30:28.441Z,922.79
2018-04-04T03:30:56.650Z,922.79
2018-04-04T03:31:24.684Z,922.83
2018-04-04T03:31:52.813Z,922.78
2018-04-04T03:33:04.001Z,922.78
2018-04-04T03:33:31.990Z,922.8
2018-04-04T03:33:59.969Z,922.81
2018-04-04T03:34:28.139Z,922.83
2018-04-04T03:34:56.217Z,922.86
2018-04-04T03:35:24.404Z,922.86
2018-04-04T03:35:52.579Z,922.87
2018-04-04T03:36:20.772Z,922.89
2018-04-04T03:36:49.091Z,922.87
2018-04-04T03:37:17.311Z,922.88
2018-04-04T03:37:45.633Z,922.86
2018-04-04T03:38:56.811Z,922.86
2018-04-04T03:39:24.999Z,922.84
2018-04-04T03:39:53.179Z,922.83
2018-04-04T03:40:21.341Z,922.83
2018-04-04T03:40:49.518Z,922.81
2018-04-04T03:41:17.710Z,922.78
2018-04-04T03:41:45.988Z,922.79
2018-04-04T03:42:14.184Z,922.78
2018-04-04T03:42:42.496Z,922.8
2018-04-04T03:43:10.822Z,922.76
2018-04-04T03:43:39.044Z,922.81
2018-04-04T03:44:50.424Z,922.78
2018-04-04T03:45:18.714Z,922.78
2018-04-04T03:45:46.979Z,922.77
2018-04-04T03:46:15.236Z,922.77
2018-04-04T03:46:43.512Z,922.75
2018-04-04T03:47:11.792Z,922.77
2018-04-04T03:47:40.078Z,922.74
2018-04-04T03:48:08.078Z,922.77
2018-04-04T03:48:36.391Z,922.74
2018-04-04T03:49:04.516Z,922.76
2018-04-04T03:49:32.744Z,922.8
2018-04-04T03:50:44.020Z,922.79
2018-04-04T03:51:12.220Z,922.79
2018-04-04T03:51:40.477Z,922.81
2018-04-04T03:52:08.648Z,922.84
2018-04-04T03:52:36.819Z,922.81
2018-04-04T03:53:04.999Z,922.8
2018-04-04T03:53:33.176Z,922.8
2018-04-04T03:54:01.474Z,922.79
2018-04-04T03:54:29.491Z,922.8
2018-04-04T03:54:57.605Z,922.79
2018-04-04T03:55:25.729Z,922.79
2018-04-04T03:56:36.714Z,922.78
2018-04-04T03:57:05.006Z,922.79
2018-04-04T03:57:33.076Z,922.76
2018-04-04T03:58:01.345Z,922.77
2018-04-04T03:58:29.622Z,922.75
2018-04-04T03:58:57.809Z,922.73
2018-04-04T03:59:25.808Z,922.74
2018-04-04T03:59:53.993Z,922.76
2018-04-04T04:00:22.001Z,922.73
2018-04-04T04:00:50.321Z,922.73
2018-04-04T04:01:18.544Z,922.72
2018-04-04T04:02:29.731Z,922.71
2018-04-04T04:02:57.814Z,922.67
2018-04-04T04:03:25.983Z,922.66
2018-04-04T04:03:54.154Z,922.68
2018-04-04T04:04:22.321Z,922.67
2018-04-04T04:04:50.403Z,922.67
2018-04-04T04:05:18.585Z,922.64
2018-04-04T04:05:46.880Z,922.63
2018-04-04T04:06:14.989Z,922.62
2018-04-04T04:06:43.313Z,922.64
2018-04-04T04:07:11.438Z,922.62
2018-04-04T04:08:22.612Z,922.63
2018-04-04T04:08:50.700Z,922.64
2018-04-04T04:09:18.765Z,922.65
2018-04-04T04:09:46.931Z,922.63
2018-04-04T04:10:15.100Z,922.6
2018-04-04T04:10:43.181Z,922.64
2018-04-04T04:11:11.363Z,922.6
2018-04-04T04:11:39.559Z,922.62
2018-04-04T04:12:07.669Z,922.61
2018-04-04T04:12:35.893Z,922.62
2018-04-04T04:13:04.015Z,922.59
2018-04-04T04:14:14.989Z,922.61
2018-04-04T04:14:43.175Z,922.6
2018-04-04T04:15:11.448Z,922.59
2018-04-04T04:15:39.716Z,922.6
2018-04-04T04:16:07.992Z,922.63
2018-04-04T04:16:36.173Z,922.62
2018-04-04T04:17:04.260Z,922.61
2018-04-04T04:17:32.543Z,922.63
2018-04-04T04:18:00.663Z,922.63
2018-04-04T04:18:28.980Z,922.59
2018-04-04T04:18:57.302Z,922.59
2018-04-04T04:20:08.379Z,922.61
2018-04-04T04:20:36.461Z,922.57
2018-04-04T04:21:04.530Z,922.57
2018-04-04T04:21:32.600Z,922.58
2018-04-04T04:22:00.785Z,922.57
2018-04-04T04:22:28.965Z,922.58
2018-04-04T04:22:56.948Z,922.53
2018-04-04T04:23:25.049Z,922.57
2018-04-04T04:23:53.361Z,922.56
2018-04-04T04:24:21.488Z,922.61
2018-04-04T04:24:49.610Z,922.58
2018-04-04T04:26:00.788Z,922.62
2018-04-04T04:26:29.074Z,922.62
2018-04-04T04:26:57.245Z,922.63
2018-04-04T04:27:25.311Z,922.6
2018-04-04T04:27:53.487Z,922.6
2018-04-04T04:28:21.468Z,922.57
2018-04-04T04:28:49.543Z,922.61
2018-04-04T04:29:17.838Z,922.6
2018-04-04T04:29:46.046Z,922.59
2018-04-04T04:30:14.068Z,922.61
2018-04-04T04:30:42.396Z,922.65
2018-04-04T04:31:53.574Z,922.61
2018-04-04T04:32:21.858Z,922.63
2018-04-04T04:32:49.936Z,922.65
2018-04-04T04:33:18.009Z,922.66
2018-04-04T04:33:46.289Z,922.64
2018-04-04T04:34:14.464Z,922.65
2018-04-04T04:34:42.643Z,922.65
2018-04-04T04:35:10.938Z,922.66
2018-04-04T04:35:39.154Z,922.66
2018-04-04T04:36:07.376Z,922.66
2018-04-04T04:36:35.601Z,922.64
2018-04-04T04:37:46.979Z,922.63
2018-04-04T04:38:15.159Z,922.63
2018-04-04T04:38:43.434Z,922.61
2018-04-04T04:39:11.707Z,922.64
2018-04-04T04:39:39.985Z,922.61
2018-04-04T04:40:08.269Z,922.61
2018-04-04T04:40:36.457Z,922.6
2018-04-04T04:41:04.752Z,922.62
2018-04-04T04:41:33.064Z,922.58
2018-04-04T04:42:01.184Z,922.6
2018-04-04T04:42:29.451Z,922.59
2018-04-04T04:43:40.681Z,922.56
2018-04-04T04:44:08.965Z,922.59
2018-04-04T04:44:37.233Z,922.57
2018-04-04T04:45:05.402Z,922.54
2018-04-04T04:45:33.680Z,922.56
2018-04-04T04:46:01.966Z,922.55
2018-04-04T04:46:30.247Z,922.5
2018-04-04T04:46:58.539Z,922.56
2018-04-04T04:47:26.853Z,922.54
2018-04-04T04:47:55.178Z,922.49
2018-04-04T04:48:23.407Z,922.49
2018-04-04T04:49:34.689Z,922.43
2018-04-04T04:50:03.013Z,922.49
2018-04-04T04:50:31.241Z,922.46
2018-04-04T04:50:59.511Z,922.44
2018-04-04T04:51:27.785Z,922.42
2018-04-04T04:51:56.066Z,922.41
2018-04-04T04:52:24.251Z,922.39
2018-04-04T04:52:52.352Z,922.4
2018-04-04T04:53:20.563Z,922.42
2018-04-04T04:53:48.782Z,922.4
2018-04-04T04:54:17.009Z,922.41
2018-04-04T04:55:28.287Z,922.4
2018-04-04T04:55:56.473Z,922.4
2018-04-04T04:56:24.743Z,922.37
2018-04-04T04:56:52.812Z,922.39
2018-04-04T04:57:21.088Z,922.31
2018-04-04T04:57:49.364Z,922.34
2018-04-04T04:58:17.648Z,922.33
2018-04-04T04:58:45.850Z,922.3
2018-04-04T04:59:14.068Z,922.34
2018-04-04T04:59:42.384Z,922.29
2018-04-04T05:00:10.709Z,922.32
2018-04-04T05:01:22.082Z,922.34
2018-04-04T05:01:50.367Z,922.3
2018-04-04T05:02:18.541Z,922.32
2018-04-04T05:02:46.707Z,922.29
2018-04-04T05:03:14.988Z,922.29
2018-04-04T05:03:43.269Z,922.31
2018-04-04T05:04:11.552Z,922.31
2018-04-04T05:04:39.754Z,922.32
2018-04-04T05:05:07.867Z,922.33
2018-04-04T05:05:35.989Z,922.32
2018-04-04T05:06:04.218Z,922.35
2018-04-04T05:07:15.404Z,922.31
2018-04-04T05:07:43.691Z,922.31
2018-04-04T05:08:11.959Z,922.3
2018-04-04T05:08:40.229Z,922.28
2018-04-04T05:09:08.400Z,922.26
2018-04-04T05:09:36.680Z,922.27
2018-04-04T05:10:04.963Z,922.25
2018-04-04T05:10:33.065Z,922.27
2018-04-04T05:11:01.373Z,922.27
2018-04-04T05:11:29.596Z,922.25
2018-04-04T05:11:57.820Z,922.26
2018-04-04T05:13:08.998Z,922.23
2018-04-04T05:13:37.281Z,922.26
2018-04-04T05:14:05.449Z,922.22
2018-04-04T05:14:33.522Z,922.25
2018-04-04T05:15:01.693Z,922.26
2018-04-04T05:15:29.886Z,922.28
2018-04-04T05:15:57.961Z,922.26
2018-04-04T05:16:26.158Z,922.23
2018-04-04T05:16:54.368Z,922.26
2018-04-04T05:17:22.595Z,922.27
2018-04-04T05:17:50.917Z,922.26
2018-04-04T05:19:01.994Z,922.29
2018-04-04T05:19:30.082Z,922.27
2018-04-04T05:19:58.256Z,922.25
2018-04-04T05:20:26.424Z,922.27
2018-04-04T05:20:54.605Z,922.27
2018-04-04T05:21:22.881Z,922.26
2018-04-04T05:21:51.163Z,922.25
2018-04-04T05:22:19.359Z,922.24
2018-04-04T05:22:47.572Z,922.27
2018-04-04T05:23:15.792Z,922.22
2018-04-04T05:23:44.026Z,922.24
2018-04-04T05:24:55.294Z,922.25
2018-04-04T05:25:23.276Z,922.23
2018-04-04T05:25:51.546Z,922.2
2018-04-04T05:26:19.523Z,922.21
2018-04-04T05:26:47.786Z,922.23
2018-04-04T05:27:15.968Z,922.24
2018-04-04T05:27:44.148Z,922.26
2018-04-04T05:28:12.335Z,922.25
2018-04-04T05:28:40.452Z,922.28
2018-04-04T05:29:08.571Z,922.23
2018-04-04T05:29:36.696Z,922.26
2018-04-04T05:30:47.969Z,922.24
2018-04-04T05:31:16.158Z,922.25
2018-04-04T05:31:44.325Z,922.25
2018-04-04T05:32:12.584Z,922.24
2018-04-04T05:32:40.864Z,922.23
2018-04-04T05:33:09.038Z,922.26
2018-04-04T05:33:37.226Z,922.26
2018-04-04T05:34:05.420Z,922.24
2018-04-04T05:34:33.429Z,922.2
2018-04-04T05:35:01.547Z,922.24
2018-04-04T05:35:29.666Z,922.23
2018-04-04T05:36:40.945Z,922.19
2018-04-04T05:37:09.231Z,922.21
2018-04-04T05:37:37.401Z,922.17
2018-04-04T05:38:05.668Z,922.2
2018-04-04T05:38:33.844Z,922.16
2018-04-04T05:39:02.024Z,922.18
2018-04-04T05:39:30.302Z,922.16
2018-04-04T05:39:58.395Z,922.15
2018-04-04T05:40:26.608Z,922.14
2018-04-04T05:40:54.825Z,922.11
2018-04-04T05:41:23.044Z,922.12
2018-04-04T05:42:34.320Z,922.13
2018-04-04T05:43:02.466Z,922.11
2018-04-04T05:43:30.673Z,922.09
2018-04-04T05:43:58.645Z,922.06
2018-04-04T05:44:26.914Z,922.09
2018-04-04T05:44:55.096Z,922.08
2018-04-04T05:45:23.267Z,922.09
2018-04-04T05:45:51.495Z,922.05
2018-04-04T05:46:19.588Z,922.02
2018-04-04T05:46:47.806Z,922.04
2018-04-04T05:47:15.924Z,922.05
2018-04-04T05:48:27.198Z,922.05
2018-04-04T05:48:55.379Z,922.06
2018-04-04T05:49:23.543Z,922.06
2018-04-04T05:49:51.801Z,922.09
2018-04-04T05:50:19.976Z,922.08
2018-04-04T05:50:48.062Z,922.07
2018-04-04T05:51:16.140Z,922.11
2018-04-04T05:51:44.228Z,922.08
2018-04-04T05:52:12.543Z,922.11
2018-04-04T05:52:40.762Z,922.13
2018-04-04T05:53:08.781Z,922.12
2018-04-04T05:54:19.867Z,922.11
2018-04-04T05:54:47.954Z,922.11
2018-04-04T05:55:16.122Z,922.08
2018-04-04T05:55:44.390Z,922.11
2018-04-04T05:56:12.471Z,922.09
2018-04-04T05:56:40.655Z,922.13
2018-04-04T05:57:08.738Z,922.1
2018-04-04T05:57:36.937Z,922.09
2018-04-04T05:58:05.250Z,922.11
2018-04-04T05:58:33.596Z,922.1
2018-04-04T05:59:01.895Z,922.1
2018-04-04T06:00:13.278Z,922.13
2018-04-04T06:00:41.559Z,922.07
2018-04-04T06:01:09.823Z,922.07
2018-04-04T06:01:38.088Z,922.04
2018-04-04T06:02:06.381Z,922.09
2018-04-04T06:02:34.449Z,922.1
2018-04-04T06:03:02.730Z,922.08
2018-04-04T06:03:31.025Z,922.1
2018-04-04T06:03:59.238Z,922.08
2018-04-04T06:04:27.558Z,922.09
2018-04-04T06:04:55.775Z,922.09
2018-04-04T06:06:07.148Z,922.1
2018-04-04T06:06:35.339Z,922.07
2018-04-04T06:07:03.605Z,922.06
2018-04-04T06:07:31.874Z,922.06
2018-04-04T06:08:00.052Z,922.03
2018-04-04T06:08:28.231Z,922.06
2018-04-04T06:08:56.514Z,922.07
2018-04-04T06:09:24.712Z,922.03
2018-04-04T06:09:53.020Z,922.04
2018-04-04T06:10:21.239Z,922.03
2018-04-04T06:10:49.364Z,922.03
2018-04-04T06:12:00.537Z,922
2018-04-04T06:12:28.720Z,922.06
2018-04-04T06:12:56.790Z,922.03
2018-04-04T06:13:25.054Z,922.05
2018-04-04T06:13:53.368Z,922.01
2018-04-04T06:14:21.497Z,922.07
2018-04-04T06:14:49.770Z,922.04
2018-04-04T06:15:18.066Z,922
2018-04-04T06:15:46.277Z,922.02
2018-04-04T06:16:14.590Z,922.02
2018-04-04T06:16:42.908Z,922.01
2018-04-04T06:17:54.084Z,922.02
2018-04-04T06:18:22.266Z,922.04
2018-04-04T06:18:50.425Z,922.03
2018-04-04T06:19:18.591Z,922.01
2018-04-04T06:19:46.664Z,922.02
2018-04-04T06:20:14.736Z,922.01
2018-04-04T06:20:42.912Z,922.01
2018-04-04T06:21:11.106Z,922.02
2018-04-04T06:21:39.211Z,921.97
2018-04-04T06:22:07.433Z,921.98
2018-04-04T06:22:35.655Z,921.96
2018-04-04T06:23:46.927Z,921.95
2018-04-04T06:24:15.005Z,921.92
2018-04-04T06:24:43.182Z,921.94
2018-04-04T06:25:11.235Z,921.96
2018-04-04T06:25:39.403Z,921.99
2018-04-04T06:26:07.585Z,921.94
2018-04-04T06:26:35.761Z,921.98
2018-04-04T06:27:03.954Z,922
2018-04-04T06:27:32.246Z,922
2018-04-04T06:28:00.263Z,922.03
2018-04-04T06:28:28.380Z,921.99
2018-04-04T06:29:39.556Z,922.01
2018-04-04T06:30:07.641Z,922.04
2018-04-04T06:30:35.607Z,922.03
2018-04-04T06:31:03.771Z,922.06
2018-04-04T06:31:31.942Z,922.05
2018-04-04T06:32:00.120Z,922.06
2018-04-04T06:32:28.205Z,922.07
2018-04-04T06:32:56.296Z,922.03
2018-04-04T06:33:24.492Z,922.03
2018-04-04T06:33:52.715Z,921.98
2018-04-04T06:34:20.937Z,922.01
2018-04-04T06:35:32.014Z,922.01
2018-04-04T06:36:00.201Z,921.98
2018-04-04T06:36:28.365Z,922
2018-04-04T06:36:56.426Z,921.98
2018-04-04T06:37:24.607Z,921.98
2018-04-04T06:37:52.794Z,922
2018-04-04T06:38:21.069Z,922
2018-04-04T06:38:49.161Z,922.02
2018-04-04T06:39:17.277Z,921.99
2018-04-04T06:39:45.497Z,922.02
2018-04-04T06:40:13.720Z,922.01
2018-04-04T06:41:25.100Z,922.02
2018-04-04T06:41:53.082Z,922.03
2018-04-04T06:42:21.249Z,921.98
2018-04-04T06:42:49.209Z,921.95